Flight Track Log - Related Links

Times and Time Zones

All times are in EDT time to prevent confusion due to time zone crossing. See the UCA4844 flight status page for this flight to view local times or setup timezone preferences in your user account.


Time Position Orientation Groundspeed Altitude Reporting Facility
EDT Latitude Longitude Course Direction KTS MPH feet Rate Location/Type
Mon 08:41:00 AM 40.3896 -74.3398 203° Southwest  Level Estimated
Mon 08:42:00 AM 40.3391 -74.3681 203° Southwest  Level Estimated
Mon 08:43:00 AM 40.2885 -74.3965 203° Southwest  Level Estimated
Mon 08:44:00 AM 40.2380 -74.4247 203° Southwest  Level Estimated
Mon 08:45:00 AM 40.1875 -74.4530 203° Southwest  Level Estimated
Mon 08:46:00 AM 40.1370 -74.4812 203° Southwest  Level Estimated
Mon 08:47:00 AM 40.0864 -74.5093 203° Southwest  Level Estimated
Mon 08:48:00 AM 40.0359 -74.5374 203° Southwest  Level Estimated
Mon 08:49:00 AM 39.9853 -74.5655 203° Southwest  Level Estimated
Mon 08:50:00 AM 39.9347 -74.5935 203° Southwest  Level Estimated
Mon 08:51:00 AM 39.8842 -74.6215 203° Southwest  Level Estimated
Mon 08:52:00 AM 39.8336 -74.6495 203° Southwest  Level Estimated
Mon 08:53:00 AM 39.7830 -74.6774 203° Southwest  Level Estimated
Mon 08:54:00 AM 39.7324 -74.7052 203° Southwest  Level Estimated
Mon 08:55:00 AM 39.6818 -74.7330 203° Southwest  Level Estimated
Mon 08:56:00 AM 39.6312 -74.7608 203° Southwest  Level Estimated
Mon 08:57:00 AM 39.5806 -74.7886 203° Southwest  Level Estimated
Mon 08:58:00 AM 39.5300 -74.8163 203° Southwest  Level Estimated
Mon 08:59:00 AM 39.4794 -74.8439 203° Southwest  Level Estimated
Mon 09:00:00 AM 39.4287 -74.8716 203° Southwest  Level Estimated
Mon 09:01:00 AM 39.3781 -74.8991 203° Southwest  Level Estimated
Mon 09:02:00 AM 39.3274 -74.9267 203° Southwest  Level Estimated
Mon 09:03:00 AM 39.2768 -74.9542 203° Southwest  Level Estimated
Mon 09:04:00 AM 39.2261 -74.9816 203° Southwest  Level Estimated
Mon 09:05:00 AM 39.1755 -75.0091 203° Southwest  Level Estimated
Mon 09:06:00 AM 39.1248 -75.0364 203° Southwest  Level Estimated
Mon 09:07:00 AM 39.0741 -75.0638 203° Southwest  Level Estimated
Mon 09:08:00 AM 39.0234 -75.0911 203° Southwest  Level Estimated
Mon 09:09:00 AM 38.9728 -75.1183 203° Southwest  Level Estimated
Mon 09:10:00 AM 38.9221 -75.1456 203° Southwest  Level Estimated
Mon 09:11:00 AM 38.8713 -75.1728 203° Southwest  Level Estimated
Mon 09:12:00 AM 38.8206 -75.1999 203° Southwest  Level Estimated
Mon 09:13:00 AM 38.7699 -75.2270 203° Southwest  Level Estimated
Mon 09:14:00 AM 38.7192 -75.2541 203° Southwest  Level Estimated
Mon 09:15:00 AM 38.6685 -75.2811 203° Southwest  Level Estimated
Mon 09:16:00 AM 38.6177 -75.3081 203° Southwest  Level Estimated
Mon 09:17:00 AM 38.5670 -75.3351 203° Southwest  Level Estimated
Mon 09:18:00 AM 38.5163 -75.3620 203° Southwest  Level Estimated
Mon 09:19:00 AM 38.4655 -75.3889 203° Southwest  Level Estimated
Mon 09:20:00 AM 38.4148 -75.4157 203° Southwest  Level Estimated
Mon 09:21:00 AM 38.3640 -75.4425 202° Southwest  Level Estimated
Mon 09:22:00 AM 38.3132 -75.4693 202° Southwest  Level Estimated
Mon 09:23:00 AM 38.2625 -75.4960 202° Southwest  Level Estimated
Mon 09:24:00 AM 38.2117 -75.5227 202° Southwest  Level Estimated
Mon 09:25:00 AM 38.1609 -75.5493 202° Southwest  Level Estimated
Mon 09:26:00 AM 38.1101 -75.5760 202° Southwest  Level Estimated
Mon 09:27:00 AM 38.0593 -75.6025 202° Southwest  Level Estimated
Mon 09:28:00 AM 38.0085 -75.6291 202° Southwest  Level Estimated
Mon 09:29:00 AM 37.9577 -75.6556 202° Southwest  Level Estimated
Mon 09:30:00 AM 37.9068 -75.6821 202° Southwest  Level Estimated
Mon 09:31:00 AM 37.8560 -75.7085 202° Southwest  Level Estimated
Mon 09:32:00 AM 37.8052 -75.7349 202° Southwest  Level Estimated
Mon 09:33:00 AM 37.7544 -75.7612 202° Southwest  Level Estimated
Mon 09:34:00 AM 37.7035 -75.7876 202° Southwest  Level Estimated
Mon 09:35:00 AM 37.6527 -75.8139 202° Southwest  Level Estimated
Mon 09:36:00 AM 37.6018 -75.8401 202° Southwest  Level Estimated
Mon 09:37:00 AM 37.5510 -75.8663 202° Southwest  Level Estimated
Mon 09:38:00 AM 37.5001 -75.8925 202° Southwest  Level Estimated
Mon 09:39:00 AM 37.4492 -75.9186 202° Southwest  Level Estimated
Mon 09:40:00 AM 37.3983 -75.9448 202° Southwest  Level Estimated
Mon 09:41:00 AM 37.3475 -75.9708 202° Southwest  Level Estimated
Mon 09:42:00 AM 37.2966 -75.9969 202° Southwest  Level Estimated
Mon 09:43:00 AM 37.2457 -76.0229 202° Southwest  Level Estimated
Mon 09:44:00 AM 37.1948 -76.0488 202° Southwest  Level Estimated
Mon 09:45:00 AM 37.1439 -76.0748 202° Southwest  Level Estimated
Mon 09:46:00 AM 37.0930 -76.1007 202° Southwest  Level Estimated
Mon 09:47:00 AM 37.0421 -76.1265 202° Southwest  Level Estimated
Mon 09:48:00 AM 36.9911 -76.1524 202° Southwest  Level Estimated
Mon 09:49:00 AM 36.9402 -76.1782 202° Southwest  Level Estimated
Mon 09:50:00 AM 36.8946 -76.2012 202° Southwest  Level Estimated
Mon 09:51:00 AM 36.8946 -76.2012 North  Level Estimated
Mon 09:52:00 AM 36.8946 -76.2012 North  Level Estimated
Mon 09:53:00 AM 36.8946 -76.2012 North  Level Estimated
Mon 09:54:00 AM 36.8946 -76.2012 North  Level Estimated
Mon 09:55:00 AM 36.8946 -76.2012 North  Level Estimated
Mon 09:56:00 AM 36.8946 -76.2012 North  Level Estimated
Mon 09:57:00 AM 36.8946 -76.2012 North  Level Estimated
Mon 09:58:00 AM 36.8946 -76.2012 North  Level Estimated
Mon 09:59:00 AM 36.8946 -76.2012 North  Level Estimated
Mon 10:00:00 AM 36.8946 -76.2012 North  Level Estimated
Mon 10:01:00 AM 36.8946 -76.2012 North  Level Estimated
Mon 10:02:00 AM 36.8946 -76.2012 North  Level Estimated
Mon 10:03:00 AM 36.8946 -76.2012 North  Level Estimated
Mon 10:04:00 AM 36.8946 -76.2012 North  Level Estimated
Mon 10:05:00 AM 36.8946 -76.2012 North  Level Estimated

Login

Don't have an account? Register now (free) for customized features, flight alerts, and more!